• Join FlightAware (Why Join?)
  • Login
  • US Flag 
07:47AM EST


 

Airport Tracker/Info


-or-


 

Live Flight TrackerFlight Track Log ✈ N662US ✈ 22-Apr-2013 ✈ RJAA / NRT - RPLL / MNL

Flight Track Log - Related Links

Times and Time Zones

All times are in EDT time to prevent confusion due to time zone crossing. See the N662US flight status page for this flight to view local times or setup timezone preferences in your user account.

Time Position Orientation Groundspeed Altitude Reporting Facility
EDT Latitude Longitude Course Direction KTS MPH feet Rate Location/Type
05:47AM 35.6833 140.2891 224° Southwest  Level Estimated
05:48AM 35.6019 140.1920 224° Southwest  Level Estimated
05:49AM 35.5204 140.0952 224° Southwest  Level Estimated
05:50AM 35.4388 139.9985 224° Southwest  Level Estimated
05:51AM 35.3571 139.9020 224° Southwest  Level Estimated
05:52AM 35.2703 139.7998 224° Southwest  Level Estimated
05:53AM 35.1834 139.6979 224° Southwest  Level Estimated
05:54AM 35.0965 139.5961 224° Southwest  Level Estimated
05:55AM 35.0094 139.4946 224° Southwest  Level Estimated
05:56AM 34.9223 139.3933 224° Southwest  Level Estimated
05:57AM 34.8351 139.2922 224° Southwest  Level Estimated
05:58AM 34.7478 139.1913 224° Southwest  Level Estimated
05:59AM 34.6604 139.0906 223° Southwest  Level Estimated
06:00AM 34.5729 138.9901 223° Southwest  Level Estimated
06:00AM 35.3650 140.0480 223° Southwest 417 480 23,000  Level FlightAware
06:00AM 35.3480 139.9550 257° West 422 486 24,500 2,040 Climbing FlightAware
06:01AM 35.3300 139.8590 257° West 433 498 25,900 2,100 Climbing FlightAware
06:02AM 35.3090 139.7540 256° West 437 503 27,500 2,160 Climbing FlightAware
06:02AM 35.2880 139.6480 256° West 441 507 29,000 2,220 Climbing FlightAware
06:03AM 35.2690 139.5480 257° West 436 502 30,700 2,160 Climbing FlightAware
06:04AM 35.2510 139.4580 256° West 432 497 31,900 900 Climbing FlightAware
06:05AM 35.2290 139.3500 256° West 428 493 32,000 60 Climbing FlightAware
06:05AM 35.2090 139.2520 256° West 427 491 32,000  Level FlightAware
06:06AM 35.1910 139.1630 256° West 426 490 32,000  Level FlightAware
06:06AM 35.1730 139.0760 256° West 427 491 32,000  Level FlightAware
06:08AM 35.1430 138.9280 256° West 427 491 32,000  Level FlightAware
06:08AM 35.1250 138.8400 256° West 425 489 32,000  Level FlightAware
06:09AM 35.1040 138.7400 256° West 422 486 32,000  Level FlightAware
06:10AM 35.0840 138.6410 256° West 419 482 32,000  Level FlightAware
06:10AM 35.0640 138.5460 256° West 417 480 32,000  Level FlightAware
06:11AM 35.0420 138.4390 256° West 414 476 32,000  Level FlightAware
06:12AM 35.0230 138.3480 256° West 415 478 32,000  Level FlightAware
06:12AM 35.0020 138.2510 255° West 416 479 32,000  Level FlightAware
06:13AM 34.9820 138.1560 256° West 419 482 32,000  Level FlightAware
06:14AM 34.9640 138.0690 256° West 420 483 32,000  Level FlightAware
06:15AM 34.9410 137.9590 256° West 421 484 32,000  Level FlightAware
06:15AM 34.9210 137.8670 255° West 422 486 32,000  Level FlightAware
06:16AM 34.8980 137.7630 255° West 422 486 32,000  Level FlightAware
06:17AM 34.8780 137.6690 255° West 425 489 32,000  Level FlightAware
06:17AM 34.8320 137.5720 240° Southwest 461 531 32,000  Level FlightAware
06:18AM 34.7770 137.4920 230° Southwest 460 529 32,000  Level FlightAware
06:19AM 34.7220 137.4100 231° Southwest 462 532 32,000  Level FlightAware
06:19AM 34.6580 137.3260 227° Southwest 474 545 32,000  Level FlightAware
06:20AM 34.5770 137.2720 209° Southwest 511 588 32,000  Level FlightAware
06:21AM 34.4790 137.2520 190° South 548 631 32,000  Level FlightAware
06:22AM 34.3630 137.2500 181° South 546 628 32,000  Level FlightAware
06:22AM 34.2680 137.2410 184° South 531 611 32,000  Level FlightAware
06:23AM 34.1530 137.2180 189° South 521 600 32,000  Level FlightAware
06:24AM 34.0690 137.2000 190° South 519 597 32,000  Level FlightAware
06:24AM 33.9490 137.1730 191° South 520 598 32,000  Level FlightAware
06:25AM 33.8530 137.1520 190° South 526 605 32,000  Level FlightAware
06:26AM 33.7560 137.1300 191° South 526 605 32,000  Level FlightAware
06:26AM 33.6450 137.1060 190° South 519 597 32,000  Level FlightAware
06:27AM 33.5570 137.0860 191° South 519 597 32,000  Level FlightAware
06:28AM 33.4430 137.0620 190° South 520 598 32,000  Level FlightAware
06:29AM 33.3120 137.0330 190° South 521 600 32,000  Level FlightAware
06:29AM 33.2230 137.0130 191° South 523 602 32,000  Level FlightAware
06:30AM 33.1040 136.9880 190° South 523 602 32,000  Level FlightAware
06:31AM 33.0050 136.9670 190° South 523 602 32,000  Level FlightAware
06:32AM 32.8780 136.9390 190° South 522 601 32,000  Level FlightAware
06:33AM 32.7650 136.9150 190° South 519 597 32,000  Level FlightAware
06:33AM 32.6690 136.8950 190° South 523 602 32,000  Level FlightAware
06:34AM 32.5650 136.8720 191° South 521 600 32,000  Level FlightAware
06:35AM 32.4750 136.8530 190° South 519 597 32,000  Level FlightAware
06:35AM 32.3960 136.8360 190° South 510 587 32,000  Level FlightAware
06:36AM 32.2840 136.8130 190° South 509 586 32,000  Level FlightAware
06:37AM 32.1850 136.7920 190° South 508 585 32,000  Level FlightAware
06:37AM 32.0910 136.7720 190° South 508 585 32,000  Level FlightAware
06:38AM 32.0130 136.7550 190° South 508 585 32,000  Level FlightAware
06:39AM 31.9140 136.7350 190° South 508 585 32,000  Level FlightAware
06:40AM 31.8360 136.7190 190° South 508 585 32,000  Level FlightAware
06:40AM 31.7570 136.7020 190° South 508 585 32,000  Level FlightAware
06:41AM 31.6780 136.6860 190° South 508 585 32,000  Level FlightAware
06:42AM 31.6000 136.6700 190° South 508 585 32,000  Level FlightAware
06:42AM 31.5010 136.6490 190° South 508 585 32,000  Level FlightAware
06:43AM 31.4230 136.6330 190° South 508 585 32,000  Level FlightAware
06:44AM 31.3440 136.6170 190° South 508 585 32,000  Level FlightAware
06:44AM 31.2650 136.6010 190° South 508 585 32,000  Level FlightAware
06:45AM 31.1860 136.5840 190° South 508 585 32,000  Level FlightAware
06:46AM 31.1080 136.5680 190° South 508 585 32,000  Level FlightAware
06:47AM 31.0090 136.5480 190° South 508 585 32,000  Level FlightAware
06:49AM 30.8363 136.3521 224° Southwest  Level Estimated
06:50AM 30.7484 136.2528 224° Southwest  Level Estimated
06:51AM 30.6601 136.1532 224° Southwest  Level Estimated
06:52AM 30.5716 136.0538 224° Southwest  Level Estimated
06:53AM 30.4831 135.9546 224° Southwest  Level Estimated
06:54AM 30.3945 135.8555 224° Southwest  Level Estimated
06:55AM 30.3058 135.7566 224° Southwest  Level Estimated
06:56AM 30.2171 135.6579 224° Southwest  Level Estimated
06:57AM 30.1283 135.5594 224° Southwest  Level Estimated
06:58AM 30.0394 135.4611 224° Southwest  Level Estimated
06:59AM 29.9504 135.3629 224° Southwest  Level Estimated
07:00AM 29.8614 135.2650 224° Southwest  Level Estimated
07:01AM 29.7723 135.1671 224° Southwest  Level Estimated
07:02AM 29.6831 135.0695 224° Southwest  Level Estimated
07:03AM 29.5939 134.9720 224° Southwest  Level Estimated
07:04AM 29.5045 134.8748 223° Southwest  Level Estimated
07:05AM 29.4151 134.7776 223° Southwest  Level Estimated
07:06AM 29.3257 134.6807 223° Southwest  Level Estimated
07:07AM 29.2362 134.5839 223° Southwest  Level Estimated
07:08AM 29.1466 134.4873 223° Southwest  Level Estimated
07:09AM 29.0569 134.3909 223° Southwest  Level Estimated
07:10AM 28.9671 134.2946 223° Southwest  Level Estimated
07:11AM 28.8773 134.1985 223° Southwest  Level Estimated
07:12AM 28.7875 134.1025 223° Southwest  Level Estimated
07:13AM 28.6975 134.0068 223° Southwest  Level Estimated
07:14AM 28.6075 133.9112 223° Southwest  Level Estimated
07:15AM 28.5178 133.8161 223° Southwest  Level Estimated
07:16AM 28.4281 133.7213 223° Southwest  Level Estimated
07:17AM 28.3383 133.6266 223° Southwest  Level Estimated
07:18AM 28.2484 133.5320 223° Southwest  Level Estimated
07:19AM 28.1585 133.4377 223° Southwest  Level Estimated
07:20AM 28.0685 133.3434 223° Southwest  Level Estimated
07:21AM 27.9784 133.2494 223° Southwest  Level Estimated
07:22AM 27.8883 133.1555 223° Southwest  Level Estimated
07:23AM 27.7981 133.0617 223° Southwest  Level Estimated
07:24AM 27.7078 132.9681 223° Southwest  Level Estimated
07:25AM 27.6171 132.8743 223° Southwest  Level Estimated
07:26AM 27.5263 132.7806 222° Southwest  Level Estimated
07:27AM 27.4354 132.6870 222° Southwest  Level Estimated
07:28AM 27.3445 132.5936 222° Southwest  Level Estimated
07:29AM 27.2535 132.5004 222° Southwest  Level Estimated
07:30AM 27.1625 132.4073 222° Southwest  Level Estimated
07:31AM 27.0714 132.3144 222° Southwest  Level Estimated
07:32AM 26.9802 132.2216 222° Southwest  Level Estimated
07:33AM 26.8890 132.1290 222° Southwest  Level Estimated
07:34AM 26.7977 132.0365 222° Southwest  Level Estimated
07:35AM 26.7064 131.9441 222° Southwest  Level Estimated
07:36AM 26.6150 131.8519 222° Southwest  Level Estimated
07:37AM 26.5235 131.7599 222° Southwest  Level Estimated
07:38AM 26.4320 131.6680 222° Southwest  Level Estimated
07:39AM 26.3404 131.5763 222° Southwest  Level Estimated
07:40AM 26.2488 131.4847 222° Southwest  Level Estimated
07:41AM 26.1571 131.3932 222° Southwest  Level Estimated
07:42AM 26.0653 131.3019 222° Southwest  Level Estimated
07:43AM 25.9735 131.2107 222° Southwest  Level Estimated
07:44AM 25.8817 131.1197 222° Southwest  Level Estimated
07:45AM 25.7897 131.0288 222° Southwest  Level Estimated
07:46AM 25.6978 130.9380 222° Southwest  Level Estimated
07:47AM 25.6057 130.8474 222° Southwest  Level Estimated
07:48AM 25.5136 130.7570 222° Southwest  Level Estimated
07:49AM 25.4215 130.6666 222° Southwest  Level Estimated
07:50AM 25.3293 130.5764 221° Southwest  Level Estimated
07:51AM 25.2370 130.4864 221° Southwest  Level Estimated
07:52AM 25.1447 130.3965 221° Southwest  Level Estimated
07:53AM 25.0523 130.3067 221° Southwest  Level Estimated
07:54AM 24.9599 130.2170 221° Southwest  Level Estimated
07:55AM 24.8675 130.1275 221° Southwest  Level Estimated
07:56AM 24.7749 130.0381 221° Southwest  Level Estimated
07:57AM 24.6823 129.9489 221° Southwest  Level Estimated
07:58AM 24.5897 129.8598 221° Southwest  Level Estimated
07:59AM 24.4970 129.7708 221° Southwest  Level Estimated
08:00AM 24.4043 129.6820 221° Southwest  Level Estimated
08:01AM 24.3115 129.5932 221° Southwest  Level Estimated
08:02AM 24.2187 129.5047 221° Southwest  Level Estimated
08:03AM 24.1258 129.4162 221° Southwest  Level Estimated
08:04AM 24.0328 129.3279 221° Southwest  Level Estimated
08:05AM 23.9398 129.2397 221° Southwest  Level Estimated
08:06AM 23.8468 129.1516 221° Southwest  Level Estimated
08:07AM 23.7537 129.0636 221° Southwest  Level Estimated
08:08AM 23.6606 128.9758 221° Southwest  Level Estimated
08:09AM 23.5674 128.8881 221° Southwest  Level Estimated
08:10AM 23.4741 128.8006 221° Southwest  Level Estimated
08:11AM 23.3808 128.7131 221° Southwest  Level Estimated
08:12AM 23.2875 128.6258 221° Southwest  Level Estimated
08:13AM 23.1941 128.5386 221° Southwest  Level Estimated
08:14AM 23.1007 128.4515 221° Southwest  Level Estimated
08:15AM 23.0072 128.3645 221° Southwest  Level Estimated
08:16AM 22.9137 128.2777 221° Southwest  Level Estimated
08:17AM 22.8201 128.1910 221° Southwest  Level Estimated
08:18AM 22.7265 128.1044 220° Southwest  Level Estimated
08:19AM 22.6328 128.0179 220° Southwest  Level Estimated
08:20AM 22.5391 127.9315 220° Southwest  Level Estimated
08:21AM 22.4453 127.8453 220° Southwest  Level Estimated
08:22AM 22.3515 127.7591 220° Southwest  Level Estimated
08:23AM 22.2577 127.6731 220° Southwest  Level Estimated
08:24AM 22.1637 127.5872 220° Southwest  Level Estimated
08:25AM 22.0698 127.5014 220° Southwest  Level Estimated
08:26AM 21.9758 127.4157 220° Southwest  Level Estimated
08:27AM 21.8818 127.3302 220° Southwest  Level Estimated
08:28AM 21.7877 127.2447 220° Southwest  Level Estimated
08:29AM 21.6936 127.1594 220° Southwest  Level Estimated
08:30AM 21.5994 127.0742 220° Southwest  Level Estimated
08:31AM 21.5052 126.9891 220° Southwest  Level Estimated
08:32AM 21.4110 126.9041 220° Southwest  Level Estimated
08:33AM 21.3167 126.8192 220° Southwest  Level Estimated
08:34AM 21.2223 126.7344 220° Southwest  Level Estimated
08:35AM 21.1280 126.6497 220° Southwest  Level Estimated
08:36AM 21.0335 126.5651 220° Southwest  Level Estimated
08:37AM 20.9391 126.4807 220° Southwest  Level Estimated
08:38AM 20.8446 126.3963 220° Southwest  Level Estimated
08:39AM 20.7500 126.3121 220° Southwest  Level Estimated
08:40AM 20.6554 126.2279 220° Southwest  Level Estimated
08:41AM 20.5608 126.1439 220° Southwest  Level Estimated
08:42AM 20.4661 126.0600 220° Southwest  Level Estimated
08:43AM 20.3714 125.9761 220° Southwest  Level Estimated
08:44AM 20.2767 125.8924 220° Southwest  Level Estimated
08:45AM 20.1819 125.8088 220° Southwest  Level Estimated
08:46AM 20.0870 125.7253 220° Southwest  Level Estimated
08:47AM 19.9922 125.6418 220° Southwest  Level Estimated
08:48AM 19.8973 125.5585 220° Southwest  Level Estimated
08:49AM 19.8023 125.4753 220° Southwest  Level Estimated
08:50AM 19.7073 125.3922 219° Southwest  Level Estimated
08:51AM 19.6123 125.3092 219° Southwest  Level Estimated
08:52AM 19.5173 125.2262 219° Southwest  Level Estimated
08:53AM 19.4222 125.1434 219° Southwest  Level Estimated
08:54AM 19.3270 125.0607 219° Southwest  Level Estimated
08:55AM 19.2319 124.9780 219° Southwest  Level Estimated
08:56AM 19.1367 124.8955 219° Southwest  Level Estimated
08:57AM 19.0414 124.8130 219° Southwest  Level Estimated
08:58AM 18.9461 124.7307 219° Southwest  Level Estimated
08:59AM 18.8508 124.6484 219° Southwest  Level Estimated
09:00AM 18.7555 124.5663 219° Southwest  Level Estimated
09:01AM 18.6601 124.4842 219° Southwest  Level Estimated
09:02AM 18.5646 124.4022 219° Southwest  Level Estimated
09:03AM 18.4692 124.3203 219° Southwest  Level Estimated
09:04AM 18.3737 124.2385 219° Southwest  Level Estimated
09:05AM 18.2782 124.1568 219° Southwest  Level Estimated
09:06AM 18.1826 124.0752 219° Southwest  Level Estimated
09:07AM 18.0870 123.9937 219° Southwest  Level Estimated
09:08AM 17.9914 123.9122 219° Southwest  Level Estimated
09:09AM 17.8957 123.8309 219° Southwest  Level Estimated
09:10AM 17.8000 123.7496 219° Southwest  Level Estimated
09:11AM 17.7042 123.6685 219° Southwest  Level Estimated
09:12AM 17.6085 123.5874 219° Southwest  Level Estimated
09:13AM 17.5127 123.5064 219° Southwest  Level Estimated
09:14AM 17.4168 123.4255 219° Southwest  Level Estimated
09:15AM 17.3210 123.3446 219° Southwest  Level Estimated
09:16AM 17.2251 123.2639 219° Southwest  Level Estimated
09:17AM 17.1291 123.1832 219° Southwest  Level Estimated
09:18AM 17.0332 123.1026 219° Southwest  Level Estimated
09:19AM 16.9372 123.0221 219° Southwest  Level Estimated
09:20AM 16.8412 122.9417 219° Southwest  Level Estimated
09:21AM 16.7451 122.8614 219° Southwest  Level Estimated
09:22AM 16.6490 122.7811 219° Southwest  Level Estimated
09:23AM 16.5529 122.7010 219° Southwest  Level Estimated
09:24AM 16.4567 122.6209 219° Southwest  Level Estimated
09:25AM 16.3605 122.5409 219° Southwest  Level Estimated
09:26AM 16.2643 122.4609 219° Southwest  Level Estimated
09:27AM 16.1681 122.3811 219° Southwest  Level Estimated
09:28AM 16.0718 122.3013 219° Southwest  Level Estimated
09:29AM 15.9755 122.2216 219° Southwest  Level Estimated
09:30AM 15.8792 122.1420 218° Southwest  Level Estimated
09:31AM 15.7828 122.0624 218° Southwest  Level Estimated
09:32AM 15.6865 121.9830 218° Southwest  Level Estimated
09:33AM 15.5900 121.9036 218° Southwest  Level Estimated
09:34AM 15.4936 121.8242 218° Southwest  Level Estimated
09:35AM 15.3971 121.7450 218° Southwest  Level Estimated
09:36AM 15.3006 121.6658 218° Southwest  Level Estimated
09:37AM 15.2041 121.5867 218° Southwest  Level Estimated
09:38AM 15.1075 121.5077 218° Southwest  Level Estimated
09:39AM 15.0110 121.4287 218° Southwest  Level Estimated
09:40AM 14.9143 121.3498 218° Southwest  Level Estimated
09:41AM 14.8177 121.2710 218° Southwest  Level Estimated
09:42AM 14.7210 121.1923 218° Southwest  Level Estimated
09:43AM 14.6243 121.1136 218° Southwest  Level Estimated